sensor_id;sensor_type;location;lat;lon;timestamp;pressure;altitude;pressure_sealevel;temperature;humidity
39443;BME280;25147;52.142;9.960;2023-05-11T00:01:33;100393.09;;;12.04;100.00
39443;BME280;25147;52.142;9.960;2023-05-11T00:04:00;100377.50;;;11.96;100.00
39443;BME280;25147;52.142;9.960;2023-05-11T00:06:26;100391.31;;;12.04;100.00
39443;BME280;25147;52.142;9.960;2023-05-11T00:08:53;100369.66;;;11.96;100.00
39443;BME280;25147;52.142;9.960;2023-05-11T00:11:21;100397.25;;;12.13;100.00
39443;BME280;25147;52.142;9.960;2023-05-11T00:13:48;100392.16;;;12.07;100.00
39443;BME280;25147;52.142;9.960;2023-05-11T00:16:15;100375.69;;;12.00;100.00
39443;BME280;25147;52.142;9.960;2023-05-11T00:18:41;100395.56;;;12.10;100.00
39443;BME280;25147;52.142;9.960;2023-05-11T00:21:08;100338.41;;;11.84;100.00
39443;BME280;25147;52.142;9.960;2023-05-11T00:23:35;100319.47;;;11.71;100.00
39443;BME280;25147;52.142;9.960;2023-05-11T00:26:02;100378.19;;;12.06;100.00
39443;BME280;25147;52.142;9.960;2023-05-11T00:28:30;100386.81;;;12.11;100.00
39443;BME280;25147;52.142;9.960;2023-05-11T00:30:57;100395.38;;;12.19;100.00
39443;BME280;25147;52.142;9.960;2023-05-11T00:33:23;100365.31;;;11.95;100.00
39443;BME280;25147;52.142;9.960;2023-05-11T00:35:50;100403.28;;;12.18;100.00
39443;BME280;25147;52.142;9.960;2023-05-11T00:38:17;100400.69;;;12.16;100.00
39443;BME280;25147;52.142;9.960;2023-05-11T00:40:44;100367.06;;;11.95;100.00
39443;BME280;25147;52.142;9.960;2023-05-11T00:43:11;100366.25;;;11.93;100.00
39443;BME280;25147;52.142;9.960;2023-05-11T00:45:39;100399.00;;;12.14;100.00
39443;BME280;25147;52.142;9.960;2023-05-11T00:48:06;100329.94;;;11.73;100.00
39443;BME280;25147;52.142;9.960;2023-05-11T00:50:33;100348.06;;;11.82;100.00
39443;BME280;25147;52.142;9.960;2023-05-11T00:53:00;100369.63;;;11.98;100.00
39443;BME280;25147;52.142;9.960;2023-05-11T00:55:26;100400.78;;;12.12;100.00
39443;BME280;25147;52.142;9.960;2023-05-11T00:57:53;100394.69;;;12.11;100.00
39443;BME280;25147;52.142;9.960;2023-05-11T01:00:20;100393.78;;;12.12;100.00
39443;BME280;25147;52.142;9.960;2023-05-11T01:02:49;100284.19;;;11.45;100.00
39443;BME280;25147;52.142;9.960;2023-05-11T01:05:15;100349.72;;;11.86;100.00
39443;BME280;25147;52.142;9.960;2023-05-11T01:07:48;100394.69;;;12.11;100.00
39443;BME280;25147;52.142;9.960;2023-05-11T01:10:20;100383.56;;;12.00;100.00
39443;BME280;25147;52.142;9.960;2023-05-11T01:12:55;100389.50;;;12.08;100.00
39443;BME280;25147;52.142;9.960;2023-05-11T01:15:29;100407.75;;;12.13;100.00
39443;BME280;25147;52.142;9.960;2023-05-11T01:18:11;100398.16;;;12.13;100.00
39443;BME280;25147;52.142;9.960;2023-05-11T01:20:42;100405.94;;;12.16;100.00
39443;BME280;25147;52.142;9.960;2023-05-11T01:23:20;100392.06;;;12.11;100.00
39443;BME280;25147;52.142;9.960;2023-05-11T01:26:06;100401.47;;;12.21;100.00
39443;BME280;25147;52.142;9.960;2023-05-11T01:29:06;100399.81;;;12.16;100.00
39443;BME280;25147;52.142;9.960;2023-05-11T01:31:39;100404.00;;;12.24;100.00
39443;BME280;25147;52.142;9.960;2023-05-11T01:34:12;100390.22;;;12.15;100.00
39443;BME280;25147;52.142;9.960;2023-05-11T01:36:47;100397.94;;;12.21;100.00
39443;BME280;25147;52.142;9.960;2023-05-11T01:39:21;100402.34;;;12.20;100.00
39443;BME280;25147;52.142;9.960;2023-05-11T01:41:52;100350.69;;;11.82;100.00
39443;BME280;25147;52.142;9.960;2023-05-11T01:44:24;100319.63;;;11.65;100.00
39443;BME280;25147;52.142;9.960;2023-05-11T01:46:53;100376.69;;;11.94;100.00
39443;BME280;25147;52.142;9.960;2023-05-11T01:49:21;100401.78;;;12.06;100.00
39443;BME280;25147;52.142;9.960;2023-05-11T01:51:50;100336.19;;;11.65;100.00
39443;BME280;25147;52.142;9.960;2023-05-11T01:54:18;100402.84;;;11.99;100.00
39443;BME280;25147;52.142;9.960;2023-05-11T01:56:47;100407.44;;;11.89;100.00
39443;BME280;25147;52.142;9.960;2023-05-11T01:59:16;100403.75;;;11.96;100.00
39443;BME280;25147;52.142;9.960;2023-05-11T02:01:43;100339.88;;;11.58;100.00
39443;BME280;25147;52.142;9.960;2023-05-11T02:04:13;100409.88;;;11.97;100.00
39443;BME280;25147;52.142;9.960;2023-05-11T02:06:42;100388.25;;;11.84;100.00
39443;BME280;25147;52.142;9.960;2023-05-11T02:09:11;100411.56;;;11.99;100.00
39443;BME280;25147;52.142;9.960;2023-05-11T02:11:39;100406.34;;;11.98;100.00
39443;BME280;25147;52.142;9.960;2023-05-11T02:14:08;100383.84;;;11.86;100.00
39443;BME280;25147;52.142;9.960;2023-05-11T02:16:36;100369.09;;;11.80;100.00
39443;BME280;25147;52.142;9.960;2023-05-11T02:19:05;100403.69;;;12.01;100.00
39443;BME280;25147;52.142;9.960;2023-05-11T02:21:37;100385.63;;;11.84;100.00
39443;BME280;25147;52.142;9.960;2023-05-11T02:24:05;100408.88;;;12.02;100.00
39443;BME280;25147;52.142;9.960;2023-05-11T02:26:33;100413.22;;;12.03;100.00
39443;BME280;25147;52.142;9.960;2023-05-11T02:28:59;100350.03;;;11.72;100.00
39443;BME280;25147;52.142;9.960;2023-05-11T02:31:28;100367.44;;;11.76;100.00
39443;BME280;25147;52.142;9.960;2023-05-11T02:33:58;100342.44;;;11.60;100.00
39443;BME280;25147;52.142;9.960;2023-05-11T02:36:33;100340.66;;;11.62;100.00
39443;BME280;25147;52.142;9.960;2023-05-11T02:39:07;100319.25;;;11.41;100.00
39443;BME280;25147;52.142;9.960;2023-05-11T02:41:41;100396.00;;;11.92;100.00
39443;BME280;25147;52.142;9.960;2023-05-11T02:44:12;100409.75;;;12.03;100.00
39443;BME280;25147;52.142;9.960;2023-05-11T02:46:39;100408.03;;;12.00;100.00
39443;BME280;25147;52.142;9.960;2023-05-11T02:49:08;100408.09;;;11.99;100.00
39443;BME280;25147;52.142;9.960;2023-05-11T02:51:38;100407.16;;;12.01;100.00
39443;BME280;25147;52.142;9.960;2023-05-11T02:54:08;100415.00;;;12.03;100.00
39443;BME280;25147;52.142;9.960;2023-05-11T02:56:37;100411.50;;;12.02;100.00
39443;BME280;25147;52.142;9.960;2023-05-11T02:59:04;100406.28;;;12.01;100.00
39443;BME280;25147;52.142;9.960;2023-05-11T03:01:32;100345.03;;;11.61;100.00
39443;BME280;25147;52.142;9.960;2023-05-11T03:04:02;100409.78;;;12.01;100.00
39443;BME280;25147;52.142;9.960;2023-05-11T03:06:30;100393.47;;;11.85;100.00
39443;BME280;25147;52.142;9.960;2023-05-11T03:09:02;100405.38;;;12.02;100.00
39443;BME280;25147;52.142;9.960;2023-05-11T03:11:29;100422.88;;;12.03;100.00
39443;BME280;25147;52.142;9.960;2023-05-11T03:13:56;100399.41;;;11.95;100.00
39443;BME280;25147;52.142;9.960;2023-05-11T03:16:23;100404.44;;;12.04;100.00
39443;BME280;25147;52.142;9.960;2023-05-11T03:18:56;100368.22;;;11.80;100.00
39443;BME280;25147;52.142;9.960;2023-05-11T03:21:25;100411.41;;;12.07;100.00
39443;BME280;25147;52.142;9.960;2023-05-11T03:23:53;100413.13;;;12.08;100.00
39443;BME280;25147;52.142;9.960;2023-05-11T03:26:22;100380.34;;;11.89;100.00
39443;BME280;25147;52.142;9.960;2023-05-11T03:28:50;100409.78;;;12.01;100.00
39443;BME280;25147;52.142;9.960;2023-05-11T03:31:18;100367.22;;;11.89;100.00
39443;BME280;25147;52.142;9.960;2023-05-11T03:33:45;100373.34;;;11.86;100.00
39443;BME280;25147;52.142;9.960;2023-05-11T03:36:12;100409.63;;;12.09;100.00
39443;BME280;25147;52.142;9.960;2023-05-11T03:38:40;100412.16;;;12.12;100.00
39443;BME280;25147;52.142;9.960;2023-05-11T03:41:07;100412.16;;;12.12;100.00
39443;BME280;25147;52.142;9.960;2023-05-11T03:43:36;100406.91;;;12.12;100.00
39443;BME280;25147;52.142;9.960;2023-05-11T03:46:04;100349.00;;;11.79;100.00
39443;BME280;25147;52.142;9.960;2023-05-11T03:48:32;100371.53;;;11.91;100.00
39443;BME280;25147;52.142;9.960;2023-05-11T03:50:58;100344.75;;;11.75;100.00
39443;BME280;25147;52.142;9.960;2023-05-11T03:53:25;100404.22;;;12.15;100.00
39443;BME280;25147;52.142;9.960;2023-05-11T03:55:52;100350.63;;;11.87;100.00
39443;BME280;25147;52.142;9.960;2023-05-11T03:58:20;100355.09;;;11.81;100.00
39443;BME280;25147;52.142;9.960;2023-05-11T04:00:49;100322.22;;;11.67;100.00
39443;BME280;25147;52.142;9.960;2023-05-11T04:03:16;100404.09;;;12.20;100.00
39443;BME280;25147;52.142;9.960;2023-05-11T04:05:43;100403.19;;;12.21;100.00
39443;BME280;25147;52.142;9.960;2023-05-11T04:08:10;100298.81;;;11.57;100.00
39443;BME280;25147;52.142;9.960;2023-05-11T04:10:37;100409.25;;;12.24;100.00
39443;BME280;25147;52.142;9.960;2023-05-11T04:13:04;100320.22;;;11.76;100.00
39443;BME280;25147;52.142;9.960;2023-05-11T04:15:30;100398.84;;;12.21;100.00
39443;BME280;25147;52.142;9.960;2023-05-11T04:17:59;100401.25;;;12.29;100.00
39443;BME280;25147;52.142;9.960;2023-05-11T04:20:25;100403.84;;;12.31;100.00
39443;BME280;25147;52.142;9.960;2023-05-11T04:22:52;100394.31;;;12.27;100.00
39443;BME280;25147;52.142;9.960;2023-05-11T04:25:19;100392.69;;;12.21;100.00
39443;BME280;25147;52.142;9.960;2023-05-11T04:27:45;100399.59;;;12.25;100.00
39443;BME280;25147;52.142;9.960;2023-05-11T04:30:12;100371.94;;;12.12;100.00
39443;BME280;25147;52.142;9.960;2023-05-11T04:32:39;100406.56;;;12.28;100.00
39443;BME280;25147;52.142;9.960;2023-05-11T04:35:08;100408.06;;;12.38;100.00
39443;BME280;25147;52.142;9.960;2023-05-11T04:37:34;100414.19;;;12.38;100.00
39443;BME280;25147;52.142;9.960;2023-05-11T04:40:01;100413.22;;;12.41;100.00
39443;BME280;25147;52.142;9.960;2023-05-11T04:42:28;100411.44;;;12.43;100.00
39443;BME280;25147;52.142;9.960;2023-05-11T04:44:55;100403.53;;;12.44;100.00
39443;BME280;25147;52.142;9.960;2023-05-11T04:47:22;100407.84;;;12.45;100.00
39443;BME280;25147;52.142;9.960;2023-05-11T04:49:49;100409.47;;;12.51;100.00
39443;BME280;25147;52.142;9.960;2023-05-11T04:52:20;100418.19;;;12.53;100.00
39443;BME280;25147;52.142;9.960;2023-05-11T04:54:47;100416.38;;;12.55;100.00
39443;BME280;25147;52.142;9.960;2023-05-11T04:57:14;100417.19;;;12.59;100.00
39443;BME280;25147;52.142;9.960;2023-05-11T04:59:41;100403.34;;;12.52;100.00
39443;BME280;25147;52.142;9.960;2023-05-11T05:02:07;100429.38;;;12.61;100.00
39443;BME280;25147;52.142;9.960;2023-05-11T05:04:34;100402.56;;;12.49;100.00
39443;BME280;25147;52.142;9.960;2023-05-11T05:07:00;100345.56;;;12.16;100.00
39443;BME280;25147;52.142;9.960;2023-05-11T05:09:30;100386.91;;;12.44;100.00
39443;BME280;25147;52.142;9.960;2023-05-11T05:11:56;100411.13;;;12.55;100.00
39443;BME280;25147;52.142;9.960;2023-05-11T05:14:26;100420.47;;;12.67;100.00
39443;BME280;25147;52.142;9.960;2023-05-11T05:16:56;100389.41;;;12.49;100.00
39443;BME280;25147;52.142;9.960;2023-05-11T05:19:24;100414.56;;;12.59;100.00
39443;BME280;25147;52.142;9.960;2023-05-11T05:21:51;100316.25;;;11.99;100.00
39443;BME280;25147;52.142;9.960;2023-05-11T05:24:18;100422.47;;;12.57;100.00
39443;BME280;25147;52.142;9.960;2023-05-11T05:26:46;100436.19;;;12.70;100.00
39443;BME280;25147;52.142;9.960;2023-05-11T05:29:13;100406.81;;;12.53;100.00
39443;BME280;25147;52.142;9.960;2023-05-11T05:31:39;100386.97;;;12.41;100.00
39443;BME280;25147;52.142;9.960;2023-05-11T05:34:06;100445.81;;;12.70;100.00
39443;BME280;25147;52.142;9.960;2023-05-11T05:36:33;100430.19;;;12.63;100.00
39443;BME280;25147;52.142;9.960;2023-05-11T05:39:00;100416.28;;;12.60;100.00
39443;BME280;25147;52.142;9.960;2023-05-11T05:41:28;100445.75;;;12.73;100.00
39443;BME280;25147;52.142;9.960;2023-05-11T05:43:56;100422.31;;;12.63;100.00
39443;BME280;25147;52.142;9.960;2023-05-11T05:46:23;100441.38;;;12.72;100.00
39443;BME280;25147;52.142;9.960;2023-05-11T05:48:50;100450.81;;;12.80;100.00
39443;BME280;25147;52.142;9.960;2023-05-11T05:51:16;100435.13;;;12.76;100.00
39443;BME280;25147;52.142;9.960;2023-05-11T05:53:43;100320.38;;;12.09;100.00
39443;BME280;25147;52.142;9.960;2023-05-11T05:56:11;100082.44;;;10.68;100.00
39443;BME280;25147;52.142;9.960;2023-05-11T05:58:38;100201.66;;;11.26;100.00
39443;BME280;25147;52.142;9.960;2023-05-11T06:01:07;100093.69;;;10.73;100.00
39443;BME280;25147;52.142;9.960;2023-05-11T06:03:34;100320.41;;;12.08;100.00
39443;BME280;25147;52.142;9.960;2023-05-11T06:06:01;100322.41;;;11.96;100.00
39443;BME280;25147;52.142;9.960;2023-05-11T06:08:27;100444.75;;;12.77;100.00
39443;BME280;25147;52.142;9.960;2023-05-11T06:10:55;100336.00;;;12.15;100.00
39443;BME280;25147;52.142;9.960;2023-05-11T06:13:22;100236.66;;;11.61;100.00
39443;BME280;25147;52.142;9.960;2023-05-11T06:15:49;100094.69;;;10.67;100.00
39443;BME280;25147;52.142;9.960;2023-05-11T06:18:23;100229.59;;;11.64;100.00
39443;BME280;25147;52.142;9.960;2023-05-11T06:21:00;100294.22;;;12.06;100.00
39443;BME280;25147;52.142;9.960;2023-05-11T06:23:30;100475.84;;;12.95;100.00
39443;BME280;25147;52.142;9.960;2023-05-11T06:25:57;100083.84;;;10.84;100.00
39443;BME280;25147;52.142;9.960;2023-05-11T06:28:23;100393.38;;;12.65;100.00
39443;BME280;25147;52.142;9.960;2023-05-11T06:30:50;100125.25;;;11.06;100.00
39443;BME280;25147;52.142;9.960;2023-05-11T06:33:19;100389.94;;;12.63;100.00
39443;BME280;25147;52.142;9.960;2023-05-11T06:35:46;100253.47;;;11.91;100.00
39443;BME280;25147;52.142;9.960;2023-05-11T06:38:13;100457.63;;;13.22;100.00
39443;BME280;25147;52.142;9.960;2023-05-11T06:40:40;100457.59;;;13.23;100.00
39443;BME280;25147;52.142;9.960;2023-05-11T06:43:06;100427.34;;;13.07;100.00
39443;BME280;25147;52.142;9.960;2023-05-11T06:45:33;100452.34;;;13.22;100.00
39443;BME280;25147;52.142;9.960;2023-05-11T06:48:00;100442.94;;;13.15;100.00
39443;BME280;25147;52.142;9.960;2023-05-11T06:50:29;100434.25;;;13.11;100.00
39443;BME280;25147;52.142;9.960;2023-05-11T06:52:56;100399.75;;;12.91;100.00
39443;BME280;25147;52.142;9.960;2023-05-11T06:55:23;100413.75;;;12.91;100.00
39443;BME280;25147;52.142;9.960;2023-05-11T06:57:50;100433.44;;;13.09;100.00
39443;BME280;25147;52.142;9.960;2023-05-11T07:00:17;100441.13;;;13.17;100.00
39443;BME280;25147;52.142;9.960;2023-05-11T07:02:44;100457.50;;;13.27;100.00
39443;BME280;25147;52.142;9.960;2023-05-11T07:05:10;100422.84;;;13.11;100.00
39443;BME280;25147;52.142;9.960;2023-05-11T07:07:39;100417.72;;;13.06;100.00
39443;BME280;25147;52.142;9.960;2023-05-11T07:10:07;100415.06;;;13.08;100.00
39443;BME280;25147;52.142;9.960;2023-05-11T07:12:34;100446.94;;;13.28;100.00
39443;BME280;25147;52.142;9.960;2023-05-11T07:15:01;100444.56;;;13.19;100.00
39443;BME280;25147;52.142;9.960;2023-05-11T07:17:28;100451.41;;;13.24;100.00
39443;BME280;25147;52.142;9.960;2023-05-11T07:19:55;100453.22;;;13.22;100.00
39443;BME280;25147;52.142;9.960;2023-05-11T07:22:21;100428.25;;;13.06;100.00
39443;BME280;25147;52.142;9.960;2023-05-11T07:24:49;100465.44;;;13.25;100.00
39443;BME280;25147;52.142;9.960;2023-05-11T07:27:16;100455.97;;;13.18;100.00
39443;BME280;25147;52.142;9.960;2023-05-11T07:29:43;100464.56;;;13.24;100.00
39443;BME280;25147;52.142;9.960;2023-05-11T07:32:09;100454.19;;;13.18;100.00
39443;BME280;25147;52.142;9.960;2023-05-11T07:34:36;100467.34;;;13.18;100.00
39443;BME280;25147;52.142;9.960;2023-05-11T07:37:03;100480.31;;;13.24;100.00
39443;BME280;25147;52.142;9.960;2023-05-11T07:39:30;100451.75;;;13.11;100.00
39443;BME280;25147;52.142;9.960;2023-05-11T07:41:58;100412.88;;;12.91;100.00
39443;BME280;25147;52.142;9.960;2023-05-11T07:44:25;100402.47;;;12.86;100.00
39443;BME280;25147;52.142;9.960;2023-05-11T07:46:52;100449.88;;;13.17;100.00
39443;BME280;25147;52.142;9.960;2023-05-11T07:49:19;100467.94;;;13.31;100.00
39443;BME280;25147;52.142;9.960;2023-05-11T07:51:46;100473.94;;;13.35;100.00
39443;BME280;25147;52.142;9.960;2023-05-11T07:54:13;100467.97;;;13.28;100.00
39443;BME280;25147;52.142;9.960;2023-05-11T07:56:39;100456.59;;;13.29;100.00
39443;BME280;25147;52.142;9.960;2023-05-11T07:59:07;100454.84;;;13.27;100.00
39443;BME280;25147;52.142;9.960;2023-05-11T08:01:34;100467.88;;;13.33;100.00
39443;BME280;25147;52.142;9.960;2023-05-11T08:04:02;100478.22;;;13.39;100.00
39443;BME280;25147;52.142;9.960;2023-05-11T08:06:28;100395.38;;;12.90;100.00
39443;BME280;25147;52.142;9.960;2023-05-11T08:08:55;100428.25;;;13.06;100.00
39443;BME280;25147;52.142;9.960;2023-05-11T08:11:22;100416.25;;;12.96;100.00
39443;BME280;25147;52.142;9.960;2023-05-11T08:13:49;100472.38;;;13.29;100.00
39443;BME280;25147;52.142;9.960;2023-05-11T08:16:17;100479.03;;;13.41;100.00
39443;BME280;25147;52.142;9.960;2023-05-11T08:18:44;100477.25;;;13.43;100.00
39443;BME280;25147;52.142;9.960;2023-05-11T08:21:11;100400.44;;;12.97;100.00
39443;BME280;25147;52.142;9.960;2023-05-11T08:23:37;100438.38;;;13.21;100.00
39443;BME280;25147;52.142;9.960;2023-05-11T08:26:04;100461.78;;;13.31;100.00
39443;BME280;25147;52.142;9.960;2023-05-11T08:28:31;100458.28;;;13.32;100.00
39443;BME280;25147;52.142;9.960;2023-05-11T08:30:59;100481.50;;;13.47;100.00
39443;BME280;25147;52.142;9.960;2023-05-11T08:33:27;100378.81;;;12.86;100.00
39443;BME280;25147;52.142;9.960;2023-05-11T08:35:54;100474.72;;;13.40;100.00
39443;BME280;25147;52.142;9.960;2023-05-11T08:38:20;100491.28;;;13.43;100.00
39443;BME280;25147;52.142;9.960;2023-05-11T08:40:47;100460.94;;;13.29;100.00
39443;BME280;25147;52.142;9.960;2023-05-11T08:43:14;100470.50;;;13.33;100.00
39443;BME280;25147;52.142;9.960;2023-05-11T08:45:44;100435.06;;;13.13;100.00
39443;BME280;25147;52.142;9.960;2023-05-11T08:48:12;100402.44;;;12.88;100.00
39443;BME280;25147;52.142;9.960;2023-05-11T08:50:44;100478.50;;;13.30;100.00
39443;BME280;25147;52.142;9.960;2023-05-11T08:53:11;100451.84;;;13.09;100.00
39443;BME280;25147;52.142;9.960;2023-05-11T08:55:38;100412.25;;;12.81;100.00
39443;BME280;25147;52.142;9.960;2023-05-11T08:58:06;100388.84;;;12.72;100.00
39443;BME280;25147;52.142;9.960;2023-05-11T09:00:33;100462.44;;;13.04;100.00
39443;BME280;25147;52.142;9.960;2023-05-11T09:03:00;100273.41;;;11.98;100.00
39443;BME280;25147;52.142;9.960;2023-05-11T09:05:29;100480.50;;;13.18;100.00
39443;BME280;25147;52.142;9.960;2023-05-11T09:08:00;100442.53;;;12.96;100.00
39443;BME280;25147;52.142;9.960;2023-05-11T09:10:27;100439.31;;;12.84;100.00
39443;BME280;25147;52.142;9.960;2023-05-11T09:12:54;100490.34;;;13.10;100.00
39443;BME280;25147;52.142;9.960;2023-05-11T09:15:21;100490.38;;;13.09;100.00
39443;BME280;25147;52.142;9.960;2023-05-11T09:17:48;100479.84;;;13.09;100.00
39443;BME280;25147;52.142;9.960;2023-05-11T09:20:15;100473.78;;;13.07;100.00
39443;BME280;25147;52.142;9.960;2023-05-11T09:22:42;100473.78;;;13.07;100.00
39443;BME280;25147;52.142;9.960;2023-05-11T09:25:12;100479.91;;;13.07;100.00
39443;BME280;25147;52.142;9.960;2023-05-11T09:27:42;100473.84;;;13.05;100.00
39443;BME280;25147;52.142;9.960;2023-05-11T09:30:11;100460.13;;;12.92;100.00
39443;BME280;25147;52.142;9.960;2023-05-11T09:32:48;100476.38;;;13.08;100.00
39443;BME280;25147;52.142;9.960;2023-05-11T09:35:20;100425.22;;;12.87;100.00
39443;BME280;25147;52.142;9.960;2023-05-11T09:38:01;100471.69;;;13.21;100.00
39443;BME280;25147;52.142;9.960;2023-05-11T09:40:31;100454.28;;;13.15;100.00
39443;BME280;25147;52.142;9.960;2023-05-11T09:42:58;100470.47;;;13.34;100.00
39443;BME280;25147;52.142;9.960;2023-05-11T09:45:35;100422.78;;;13.14;100.00
39443;BME280;25147;52.142;9.960;2023-05-11T09:48:02;100452.72;;;13.42;100.00
39443;BME280;25147;52.142;9.960;2023-05-11T09:50:31;100487.16;;;13.66;100.00
39443;BME280;25147;52.142;9.960;2023-05-11T09:52:58;100430.69;;;13.47;100.00
39443;BME280;25147;52.142;9.960;2023-05-11T09:55:25;100418.19;;;13.55;100.00
39443;BME280;25147;52.142;9.960;2023-05-11T09:57:55;100470.50;;;13.95;100.00
39443;BME280;25147;52.142;9.960;2023-05-11T10:00:22;100454.88;;;13.91;100.00
39443;BME280;25147;52.142;9.960;2023-05-11T10:03:01;100463.47;;;13.96;100.00
39443;BME280;25147;52.142;9.960;2023-05-11T10:05:29;100470.28;;;14.03;100.00
39443;BME280;25147;52.142;9.960;2023-05-11T10:07:57;100448.75;;;13.90;100.00
39443;BME280;25147;52.142;9.960;2023-05-11T10:10:26;100470.19;;;14.06;100.00
39443;BME280;25147;52.142;9.960;2023-05-11T10:12:55;100478.00;;;14.09;100.00
39443;BME280;25147;52.142;9.960;2023-05-11T10:15:23;100458.09;;;14.00;100.00
39443;BME280;25147;52.142;9.960;2023-05-11T10:17:53;100464.03;;;14.07;100.00
39443;BME280;25147;52.142;9.960;2023-05-11T10:20:20;100472.56;;;14.15;100.00
39443;BME280;25147;52.142;9.960;2023-05-11T10:22:49;100461.41;;;14.07;100.00
39443;BME280;25147;52.142;9.960;2023-05-11T10:25:17;100474.41;;;14.12;100.00
39443;BME280;25147;52.142;9.960;2023-05-11T10:27:43;100443.59;;;13.85;100.00
39443;BME280;25147;52.142;9.960;2023-05-11T10:30:12;100442.78;;;13.83;100.00
39443;BME280;25147;52.142;9.960;2023-05-11T10:32:40;100406.69;;;13.57;100.00
39443;BME280;25147;52.142;9.960;2023-05-11T10:35:08;100460.50;;;13.78;100.00
39443;BME280;25147;52.142;9.960;2023-05-11T10:37:34;100457.22;;;13.70;100.00
39443;BME280;25147;52.142;9.960;2023-05-11T10:40:01;100454.78;;;13.62;100.00
39443;BME280;25147;52.142;9.960;2023-05-11T10:42:41;100342.59;;;12.99;100.00
39443;BME280;25147;52.142;9.960;2023-05-11T10:45:19;100409.09;;;13.35;100.00
39443;BME280;25147;52.142;9.960;2023-05-11T10:48:12;100431.97;;;13.63;100.00
39443;BME280;25147;52.142;9.960;2023-05-11T10:50:49;100461.19;;;13.83;100.00
39443;BME280;25147;52.142;9.960;2023-05-11T10:53:36;100393.78;;;13.50;100.00
39443;BME280;25147;52.142;9.960;2023-05-11T10:56:16;100463.56;;;13.93;100.00
39443;BME280;25147;52.142;9.960;2023-05-11T10:59:02;100367.56;;;13.47;100.00
39443;BME280;25147;52.142;9.960;2023-05-11T11:01:39;100427.00;;;13.83;100.00
39443;BME280;25147;52.142;9.960;2023-05-11T11:04:07;100457.13;;;14.03;100.00
39443;BME280;25147;52.142;9.960;2023-05-11T11:06:35;100434.69;;;13.90;100.00
39443;BME280;25147;52.142;9.960;2023-05-11T11:09:04;100460.66;;;14.02;100.00
39443;BME280;25147;52.142;9.960;2023-05-11T11:11:34;100456.41;;;13.98;100.00
39443;BME280;25147;52.142;9.960;2023-05-11T11:14:04;100459.22;;;13.92;100.00
39443;BME280;25147;52.142;9.960;2023-05-11T11:16:31;100462.94;;;13.84;100.00
39443;BME280;25147;52.142;9.960;2023-05-11T11:19:37;100459.56;;;13.79;100.00
39443;BME280;25147;52.142;9.960;2023-05-11T11:22:04;100400.09;;;13.44;100.00
39443;BME280;25147;52.142;9.960;2023-05-11T11:24:45;100425.13;;;13.57;100.00
39443;BME280;25147;52.142;9.960;2023-05-11T11:27:13;100426.63;;;13.66;100.00
39443;BME280;25147;52.142;9.960;2023-05-11T11:29:40;100445.47;;;13.82;100.00
39443;BME280;25147;52.142;9.960;2023-05-11T11:32:24;100445.56;;;13.79;100.00
39443;BME280;25147;52.142;9.960;2023-05-11T11:34:53;100467.28;;;13.85;100.00
39443;BME280;25147;52.142;9.960;2023-05-11T11:37:19;100461.38;;;13.77;100.00
39443;BME280;25147;52.142;9.960;2023-05-11T11:39:50;100445.91;;;13.67;100.00
39443;BME280;25147;52.142;9.960;2023-05-11T11:42:32;100454.66;;;13.67;100.00
39443;BME280;25147;52.142;9.960;2023-05-11T11:45:29;100466.75;;;13.74;100.00
39443;BME280;25147;52.142;9.960;2023-05-11T11:48:07;100451.25;;;13.63;100.00
39443;BME280;25147;52.142;9.960;2023-05-11T11:50:35;100459.25;;;13.60;100.00
39443;BME280;25147;52.142;9.960;2023-05-11T11:53:02;100424.47;;;13.49;100.00
39443;BME280;25147;52.142;9.960;2023-05-11T11:55:44;100467.75;;;13.70;100.00
39443;BME280;25147;52.142;9.960;2023-05-11T11:58:13;100469.59;;;13.67;100.00
39443;BME280;25147;52.142;9.960;2023-05-11T12:01:02;100468.59;;;13.71;100.00
39443;BME280;25147;52.142;9.960;2023-05-11T12:03:32;100481.63;;;13.75;100.00
39443;BME280;25147;52.142;9.960;2023-05-11T12:06:04;100468.41;;;13.77;100.00
39443;BME280;25147;52.142;9.960;2023-05-11T12:08:32;100462.38;;;13.73;100.00
39443;BME280;25147;52.142;9.960;2023-05-11T12:11:01;100468.66;;;13.68;100.00
39443;BME280;25147;52.142;9.960;2023-05-11T12:13:28;100467.81;;;13.67;100.00
39443;BME280;25147;52.142;9.960;2023-05-11T12:16:06;100425.53;;;13.43;100.00
39443;BME280;25147;52.142;9.960;2023-05-11T12:18:33;100400.47;;;13.29;100.00
39443;BME280;25147;52.142;9.960;2023-05-11T12:21:02;100465.81;;;13.75;100.00
39443;BME280;25147;52.142;9.960;2023-05-11T12:23:29;100458.84;;;13.74;100.00
39443;BME280;25147;52.142;9.960;2023-05-11T12:26:00;100453.59;;;13.74;100.00
39443;BME280;25147;52.142;9.960;2023-05-11T12:28:27;100411.06;;;13.58;100.00
39443;BME280;25147;52.142;9.960;2023-05-11T12:30:54;100450.50;;;13.90;100.00
39443;BME280;25147;52.142;9.960;2023-05-11T12:33:22;100454.53;;;14.01;100.00
39443;BME280;25147;52.142;9.960;2023-05-11T12:35:51;100441.16;;;14.09;100.00
39443;BME280;25147;52.142;9.960;2023-05-11T12:38:20;100430.50;;;14.12;100.00
39443;BME280;25147;52.142;9.960;2023-05-11T12:40:47;100376.72;;;13.93;100.00
39443;BME280;25147;52.142;9.960;2023-05-11T12:43:17;100459.22;;;14.50;100.00
39443;BME280;25147;52.142;9.960;2023-05-11T12:45:44;100457.13;;;14.61;100.00
39443;BME280;25147;52.142;9.960;2023-05-11T12:48:14;100429.50;;;14.44;100.00
39443;BME280;25147;52.142;9.960;2023-05-11T12:50:42;100453.53;;;14.63;100.00